Starr, Pennsylvania
Current Conditions -  °F | °C
As of 10:53 PM on Thursday 20 Nov 2014 (Local Time) from KDUJ Reporting Station
Clear Clear  
Wind Chill:   Ceiling: Unl
Heat Index: 18°   Visibility: 10mi
Dew Point: 12°   Wind: 14mph
Humidity: 78%   Direction: 250°WSW
Pressure: 30"   Gusts: NA
Location:  41.5317°N, 79.2538°W
Report Text: KDUJ 210353Z AUTO 25012KT 10SM CLR M08/M11 A3000 RMK AO2 SLP184 T10781111
Loading
Personal Weather Stations






























Interactive Weather Map New forecast layout! Learn more

10-Day Weather Forecast

Advertisements
Track Severe Weather on mobile